Time,TemperatureF,DewpointF,PressureIn,WindDirection,WindDirectionDegrees,WindSpeedMPH,WindSpeedGustMPH,Humidity,HourlyPrecipIn,Conditions,Clouds,dailyrainin,SoftwareType,DateUTC
2013-07-05 00:01:00,68.6,62.5,30.01,South,173,6.0,6.0,81,0.00,,,0.00,Wunderground v.1.15,2013-07-05 05:01:00,
2013-07-05 00:07:00,68.4,62.7,30.00,SSE,167,5.0,6.0,82,0.00,,,0.00,Wunderground v.1.15,2013-07-05 05:07:00,
2013-07-05 00:13:00,68.0,62.3,30.00,South,173,5.0,7.0,82,0.00,,,0.00,Wunderground v.1.15,2013-07-05 05:13:00,
2013-07-05 00:20:00,67.8,62.1,30.00,South,187,4.0,7.0,82,0.00,,,0.00,Wunderground v.1.15,2013-07-05 05:20:00,
2013-07-05 00:25:00,67.7,62.0,30.00,South,187,2.0,4.0,82,0.00,,,0.00,Wunderground v.1.15,2013-07-05 05:25:00,
2013-07-05 00:31:00,67.6,61.9,30.00,South,179,2.0,5.0,82,0.00,,,0.00,Wunderground v.1.15,2013-07-05 05:31:00,
2013-07-05 00:36:00,67.6,61.9,30.00,SSE,167,3.0,6.0,82,0.00,,,0.00,Wunderground v.1.15,2013-07-05 05:36:00,
2013-07-05 00:41:00,67.5,61.5,30.00,South,184,4.0,6.0,81,0.00,,,0.00,Wunderground v.1.15,2013-07-05 05:41:00,
2013-07-05 00:47:00,67.4,61.4,30.00,South,178,4.0,7.0,81,0.00,,,0.00,Wunderground v.1.15,2013-07-05 05:47:00,
2013-07-05 00:52:00,67.3,61.3,30.00,South,182,4.0,4.0,81,0.00,,,0.00,Wunderground v.1.15,2013-07-05 05:52:00,
2013-07-05 00:58:00,67.1,61.1,30.00,South,180,4.0,5.0,81,0.00,,,0.00,Wunderground v.1.15,2013-07-05 05:58:00,
2013-07-05 01:03:00,66.9,60.9,30.00,South,182,4.0,4.0,81,0.00,,,0.00,Wunderground v.1.15,2013-07-05 06:03:00,
2013-07-05 01:10:00,66.7,60.7,30.00,SSE,165,5.0,7.0,81,0.00,,,0.00,Wunderground v.1.15,2013-07-05 06:10:00,
2013-07-05 01:16:00,66.5,60.5,30.00,South,180,5.0,5.0,81,0.00,,,0.00,Wunderground v.1.15,2013-07-05 06:16:00,
2013-07-05 01:21:00,66.3,60.6,30.00,South,180,4.0,4.0,82,0.00,,,0.00,Wunderground v.1.15,2013-07-05 06:21:00,
2013-07-05 01:26:00,66.2,60.2,30.00,South,180,3.0,5.0,81,0.00,,,0.00,Wunderground v.1.15,2013-07-05 06:26:00,
2013-07-05 01:31:00,66.0,60.3,30.00,South,171,3.0,3.0,82,0.00,,,0.00,Wunderground v.1.15,2013-07-05 06:31:00,
2013-07-05 01:37:00,65.7,60.1,30.00,South,171,3.0,4.0,82,0.00,,,0.00,Wunderground v.1.15,2013-07-05 06:37:00,
2013-07-05 01:43:00,65.4,60.1,30.00,South,171,3.0,4.0,83,0.00,,,0.00,Wunderground v.1.15,2013-07-05 06:43:00,
2013-07-05 01:48:00,65.2,59.9,30.01,South,171,3.0,5.0,83,0.00,,,0.00,Wunderground v.1.15,2013-07-05 06:48:00,
2013-07-05 01:53:00,65.0,59.7,30.00,South,171,3.0,4.0,83,0.00,,,0.00,Wunderground v.1.15,2013-07-05 06:53:00,
2013-07-05 02:00:00,64.8,59.9,30.00,South,171,3.0,4.0,84,0.00,,,0.00,Wunderground v.1.15,2013-07-05 07:00:00,
2013-07-05 02:05:00,64.6,60.0,30.01,South,171,3.0,3.0,85,0.00,,,0.00,Wunderground v.1.15,2013-07-05 07:05:00,
2013-07-05 02:11:00,64.4,59.8,30.01,South,171,2.0,3.0,85,0.00,,,0.00,Wunderground v.1.15,2013-07-05 07:11:00,
2013-07-05 02:16:00,64.2,59.6,30.00,South,171,2.0,3.0,85,0.00,,,0.00,Wunderground v.1.15,2013-07-05 07:16:00,
2013-07-05 02:21:00,64.1,59.5,30.00,South,171,3.0,4.0,85,0.00,,,0.00,Wunderground v.1.15,2013-07-05 07:21:00,
2013-07-05 02:26:00,64.0,59.7,30.00,South,171,3.0,4.0,86,0.00,,,0.00,Wunderground v.1.15,2013-07-05 07:26:00,
2013-07-05 02:32:00,63.8,59.5,30.01,South,171,3.0,4.0,86,0.00,,,0.00,Wunderground v.1.15,2013-07-05 07:32:00,
2013-07-05 02:38:00,63.7,59.4,30.01,South,171,3.0,4.0,86,0.00,,,0.00,Wunderground v.1.15,2013-07-05 07:38:00,
2013-07-05 02:43:00,63.6,59.3,30.01,South,171,3.0,4.0,86,0.00,,,0.00,Wunderground v.1.15,2013-07-05 07:43:00,
2013-07-05 02:50:00,63.5,59.6,30.01,South,171,4.0,4.0,87,0.00,,,0.00,Wunderground v.1.15,2013-07-05 07:50:00,
2013-07-05 02:55:00,63.4,59.5,30.01,South,171,4.0,5.0,87,0.00,,,0.00,Wunderground v.1.15,2013-07-05 07:55:00,
2013-07-05 03:01:00,63.4,59.5,30.01,South,171,3.0,3.0,87,0.00,,,0.00,Wunderground v.1.15,2013-07-05 08:01:00,
2013-07-05 03:06:00,63.4,59.5,30.00,South,171,3.0,4.0,87,0.00,,,0.00,Wunderground v.1.15,2013-07-05 08:06:00,
2013-07-05 03:11:00,63.4,59.5,30.00,South,171,2.0,3.0,87,0.00,,,0.00,Wunderground v.1.15,2013-07-05 08:11:00,
2013-07-05 03:17:00,63.4,59.5,30.00,South,171,2.0,4.0,87,0.00,,,0.00,Wunderground v.1.15,2013-07-05 08:17:00,
2013-07-05 03:23:00,63.3,59.4,30.00,South,171,3.0,3.0,87,0.00,,,0.00,Wunderground v.1.15,2013-07-05 08:23:00,
2013-07-05 03:28:00,63.2,59.3,30.00,South,171,3.0,3.0,87,0.00,,,0.00,Wunderground v.1.15,2013-07-05 08:28:00,
2013-07-05 03:35:00,63.1,59.5,30.00,South,171,3.0,3.0,88,0.00,,,0.00,Wunderground v.1.15,2013-07-05 08:35:00,
2013-07-05 03:41:00,62.9,59.3,30.01,South,171,2.0,2.0,88,0.00,,,0.00,Wunderground v.1.15,2013-07-05 08:41:00,
2013-07-05 03:46:00,62.9,59.3,30.01,South,171,1.0,2.0,88,0.00,,,0.00,Wunderground v.1.15,2013-07-05 08:46:00,
2013-07-05 03:51:00,62.7,59.4,30.00,South,171,1.0,2.0,89,0.00,,,0.00,Wunderground v.1.15,2013-07-05 08:51:00,
2013-07-05 03:56:00,62.7,59.4,30.00,South,171,1.0,2.0,89,0.00,,,0.00,Wunderground v.1.15,2013-07-05 08:56:00,
2013-07-05 04:02:00,62.6,59.3,30.00,South,171,1.0,2.0,89,0.00,,,0.00,Wunderground v.1.15,2013-07-05 09:02:00,
2013-07-05 04:10:00,62.4,59.4,30.00,South,171,2.0,2.0,90,0.00,,,0.00,Wunderground v.1.15,2013-07-05 09:10:00,
2013-07-05 04:16:00,62.4,59.4,30.00,South,171,2.0,3.0,90,0.00,,,0.00,Wunderground v.1.15,2013-07-05 09:16:00,
2013-07-05 04:22:00,62.3,59.3,30.00,South,171,1.0,1.0,90,0.00,,,0.00,Wunderground v.1.15,2013-07-05 09:22:00,
2013-07-05 04:27:00,62.2,59.5,30.00,South,171,0.0,1.0,91,0.00,,,0.00,Wunderground v.1.15,2013-07-05 09:27:00,
2013-07-05 04:33:00,62.1,59.4,30.00,South,171,0.0,0.0,91,0.00,,,0.00,Wunderground v.1.15,2013-07-05 09:33:00,
2013-07-05 04:40:00,62.0,59.3,30.00,South,171,1.0,3.0,91,0.00,,,0.00,Wunderground v.1.15,2013-07-05 09:40:00,
2013-07-05 04:45:00,62.0,59.3,30.00,South,171,1.0,2.0,91,0.00,,,0.00,Wunderground v.1.15,2013-07-05 09:45:00,
2013-07-05 04:51:00,61.9,59.5,30.00,South,171,1.0,1.0,92,0.00,,,0.00,Wunderground v.1.15,2013-07-05 09:51:00,
2013-07-05 04:56:00,61.9,59.5,30.01,South,171,2.0,3.0,92,0.00,,,0.00,Wunderground v.1.15,2013-07-05 09:56:00,
2013-07-05 05:01:00,61.8,59.5,30.01,South,171,1.0,1.0,92,0.00,,,0.00,Wunderground v.1.15,2013-07-05 10:01:00,
2013-07-05 05:06:00,61.8,59.5,30.01,South,171,0.0,1.0,92,0.00,,,0.00,Wunderground v.1.15,2013-07-05 10:06:00,
2013-07-05 05:12:00,61.8,59.8,30.01,South,171,0.0,0.0,93,0.00,,,0.00,Wunderground v.1.15,2013-07-05 10:12:00,
2013-07-05 05:17:00,61.7,59.7,30.01,South,171,1.0,2.0,93,0.00,,,0.00,Wunderground v.1.15,2013-07-05 10:17:00,
2013-07-05 05:23:00,61.6,59.6,30.01,South,171,1.0,2.0,93,0.00,,,0.00,Wunderground v.1.15,2013-07-05 10:23:00,
2013-07-05 05:28:00,61.5,59.5,30.01,South,171,2.0,3.0,93,0.00,,,0.00,Wunderground v.1.15,2013-07-05 10:28:00,
2013-07-05 05:35:00,61.4,59.4,30.02,South,171,1.0,2.0,93,0.00,,,0.00,Wunderground v.1.15,2013-07-05 10:35:00,
2013-07-05 05:40:00,61.4,59.7,30.02,South,171,1.0,2.0,94,0.00,,,0.00,Wunderground v.1.15,2013-07-05 10:40:00,
2013-07-05 05:46:00,61.4,59.7,30.02,South,171,2.0,3.0,94,0.00,,,0.00,Wunderground v.1.15,2013-07-05 10:46:00,
2013-07-05 05:51:00,61.4,59.7,30.02,South,171,3.0,3.0,94,0.00,,,0.00,Wunderground v.1.15,2013-07-05 10:51:00,
2013-07-05 05:56:00,61.6,59.9,30.02,South,171,2.0,3.0,94,0.00,,,0.00,Wunderground v.1.15,2013-07-05 10:56:00,
2013-07-05 06:02:00,61.8,60.1,30.02,South,171,2.0,3.0,94,0.00,,,0.00,Wunderground v.1.15,2013-07-05 11:02:00,
2013-07-05 06:08:00,62.1,60.4,30.02,South,171,2.0,4.0,94,0.00,,,0.00,Wunderground v.1.15,2013-07-05 11:08:00,
2013-07-05 06:13:00,62.5,60.7,30.02,South,171,2.0,2.0,94,0.00,,,0.00,Wunderground v.1.15,2013-07-05 11:13:00,
2013-07-05 06:18:00,62.8,61.0,30.02,South,171,1.0,3.0,94,0.00,,,0.00,Wunderground v.1.15,2013-07-05 11:18:00,
2013-07-05 06:25:00,63.3,61.5,30.02,South,171,2.0,3.0,94,0.00,,,0.00,Wunderground v.1.15,2013-07-05 11:25:00,
2013-07-05 06:31:00,63.9,61.8,30.02,South,171,2.0,2.0,93,0.00,,,0.00,Wunderground v.1.15,2013-07-05 11:31:00,
2013-07-05 06:36:00,64.4,62.0,30.03,South,171,2.0,4.0,92,0.00,,,0.00,Wunderground v.1.15,2013-07-05 11:36:00,
2013-07-05 06:42:00,64.9,62.2,30.03,South,171,2.0,2.0,91,0.00,,,0.00,Wunderground v.1.15,2013-07-05 11:42:00,
2013-07-05 06:48:00,65.6,62.9,30.03,South,171,2.0,4.0,91,0.00,,,0.00,Wunderground v.1.15,2013-07-05 11:48:00,
2013-07-05 06:55:00,66.5,63.5,30.03,South,171,2.0,4.0,90,0.00,,,0.00,Wunderground v.1.15,2013-07-05 11:55:00,
2013-07-05 07:00:00,67.1,63.7,30.03,South,171,2.0,5.0,89,0.00,,,0.00,Wunderground v.1.15,2013-07-05 12:00:00,
2013-07-05 07:06:00,67.5,63.8,30.03,South,171,2.0,4.0,88,0.00,,,0.00,Wunderground v.1.15,2013-07-05 12:06:00,
2013-07-05 07:11:00,68.0,64.0,30.03,South,171,2.0,2.0,87,0.00,,,0.00,Wunderground v.1.15,2013-07-05 12:11:00,
2013-07-05 07:16:00,68.4,64.0,30.03,SSW,198,3.0,7.0,86,0.00,,,0.00,Wunderground v.1.15,2013-07-05 12:16:00,
2013-07-05 07:22:00,68.6,64.6,30.03,South,185,3.0,4.0,87,0.00,,,0.00,Wunderground v.1.15,2013-07-05 12:22:00,
2013-07-05 07:28:00,69.0,64.6,30.03,South,187,2.0,5.0,86,0.00,,,0.00,Wunderground v.1.15,2013-07-05 12:28:00,
2013-07-05 07:33:00,69.2,64.8,30.03,South,169,3.0,7.0,86,0.00,,,0.00,Wunderground v.1.15,2013-07-05 12:33:00,
2013-07-05 07:40:00,69.4,65.0,30.03,SSW,194,5.0,7.0,86,0.00,,,0.00,Wunderground v.1.15,2013-07-05 12:40:00,
2013-07-05 07:46:00,69.8,65.4,30.03,South,188,4.0,7.0,86,0.00,,,0.00,Wunderground v.1.15,2013-07-05 12:46:00,
2013-07-05 07:53:00,70.1,65.7,30.04,SSW,193,4.0,4.0,86,0.00,,,0.00,Wunderground v.1.15,2013-07-05 12:53:00,
2013-07-05 08:00:00,70.6,66.2,30.04,South,187,4.0,6.0,86,0.00,,,0.00,Wunderground v.1.15,2013-07-05 13:00:00,
2013-07-05 08:06:00,71.1,67.0,30.04,SSW,195,4.0,7.0,87,0.00,,,0.00,Wunderground v.1.15,2013-07-05 13:06:00,
2013-07-05 08:11:00,71.5,66.4,30.04,South,175,4.0,6.0,84,0.00,,,0.00,Wunderground v.1.15,2013-07-05 13:11:00,
2013-07-05 08:17:00,71.7,66.6,30.04,South,182,5.0,6.0,84,0.00,,,0.00,Wunderground v.1.15,2013-07-05 13:17:00,
2013-07-05 08:23:00,71.9,66.8,30.04,South,182,3.0,5.0,84,0.00,,,0.00,Wunderground v.1.15,2013-07-05 13:23:00,
2013-07-05 08:28:00,72.0,67.2,30.04,South,188,3.0,7.0,85,0.00,,,0.00,Wunderground v.1.15,2013-07-05 13:28:00,
2013-07-05 08:36:00,72.6,67.5,30.04,South,182,4.0,6.0,84,0.00,,,0.00,Wunderground v.1.15,2013-07-05 13:36:00,
2013-07-05 08:41:00,72.8,67.0,30.04,South,184,3.0,3.0,82,0.00,,,0.00,Wunderground v.1.15,2013-07-05 13:41:00,
2013-07-05 08:47:00,73.2,67.7,30.04,SSW,208,2.0,6.0,83,0.00,,,0.00,Wunderground v.1.15,2013-07-05 13:47:00,
2013-07-05 08:53:00,73.5,68.7,30.04,SW,214,3.0,6.0,85,0.00,,,0.00,Wunderground v.1.15,2013-07-05 13:53:00,
2013-07-05 09:00:00,73.8,68.0,30.04,SSW,206,3.0,7.0,82,0.00,,,0.00,Wunderground v.1.15,2013-07-05 14:00:00,
2013-07-05 09:06:00,74.3,68.1,30.04,SSW,196,3.0,3.0,81,0.00,,,0.00,Wunderground v.1.15,2013-07-05 14:06:00,
2013-07-05 09:11:00,74.5,68.3,30.04,South,186,2.0,6.0,81,0.00,,,0.00,Wunderground v.1.15,2013-07-05 14:11:00,
2013-07-05 09:17:00,74.7,67.8,30.04,SW,221,4.0,6.0,79,0.00,,,0.00,Wunderground v.1.15,2013-07-05 14:17:00,
2013-07-05 09:22:00,74.8,67.1,30.04,SSW,200,4.0,4.0,77,0.00,,,0.00,Wunderground v.1.15,2013-07-05 14:22:00,
2013-07-05 09:28:00,75.2,68.2,30.04,SSW,195,3.0,6.0,79,0.00,,,0.00,Wunderground v.1.15,2013-07-05 14:28:00,
2013-07-05 09:35:00,75.5,68.9,30.03,SSW,195,4.0,5.0,80,0.00,,,0.00,Wunderground v.1.15,2013-07-05 14:35:00,
2013-07-05 09:41:00,75.8,69.2,30.03,South,181,2.0,2.0,80,0.00,,,0.00,Wunderground v.1.15,2013-07-05 14:41:00,
2013-07-05 09:46:00,76.3,68.6,30.03,SSW,196,2.0,6.0,77,0.00,,,0.00,Wunderground v.1.15,2013-07-05 14:46:00,
2013-07-05 09:51:00,76.5,68.4,30.03,SSW,198,3.0,3.0,76,0.00,,,0.00,Wunderground v.1.15,2013-07-05 14:51:00,
2013-07-05 09:57:00,76.6,68.8,30.03,South,190,4.0,5.0,77,0.00,,,0.00,Wunderground v.1.15,2013-07-05 14:57:00,
2013-07-05 10:03:00,77.2,69.4,30.03,SSW,209,3.0,5.0,77,0.00,,,0.00,Wunderground v.1.15,2013-07-05 15:03:00,
2013-07-05 10:08:00,77.7,69.1,30.03,South,171,3.0,5.0,75,0.00,,,0.00,Wunderground v.1.15,2013-07-05 15:08:00,
2013-07-05 10:15:00,78.1,69.5,30.03,South,184,4.0,5.0,75,0.00,,,0.00,Wunderground v.1.15,2013-07-05 15:15:00,
2013-07-05 10:21:00,78.5,70.3,30.03,South,169,4.0,4.0,76,0.00,,,0.00,Wunderground v.1.15,2013-07-05 15:21:00,
2013-07-05 10:26:00,78.8,70.6,30.03,SSW,205,3.0,5.0,76,0.00,,,0.00,Wunderground v.1.15,2013-07-05 15:26:00,
2013-07-05 10:31:00,78.8,70.2,30.02,South,178,2.0,5.0,75,0.00,,,0.00,Wunderground v.1.15,2013-07-05 15:31:00,
2013-07-05 10:36:00,78.9,69.9,30.03,SW,226,4.0,7.0,74,0.00,,,0.00,Wunderground v.1.15,2013-07-05 15:36:00,
2013-07-05 10:42:00,79.1,69.7,30.03,South,180,4.0,7.0,73,0.00,,,0.00,Wunderground v.1.15,2013-07-05 15:42:00,
2013-07-05 10:48:00,79.4,70.4,30.03,WSW,254,4.0,7.0,74,0.00,,,0.00,Wunderground v.1.15,2013-07-05 15:48:00,
2013-07-05 10:53:00,79.7,71.1,30.03,SSW,199,4.0,6.0,75,0.00,,,0.00,Wunderground v.1.15,2013-07-05 15:53:00,
2013-07-05 10:56:00,79.9,70.9,30.03,SSW,205,3.0,6.0,74,0.00,,,0.00,Wunderground v.1.15,2013-07-05 15:56:00,
2013-07-05 11:01:00,80.3,71.3,30.03,South,187,2.0,4.0,74,0.00,,,0.00,Wunderground v.1.15,2013-07-05 16:01:00,
2013-07-05 11:06:00,80.1,69.0,30.03,WSW,255,3.0,8.0,69,0.00,,,0.00,Wunderground v.1.15,2013-07-05 16:06:00,
2013-07-05 11:12:00,80.2,69.9,30.03,SSW,213,4.0,7.0,71,0.00,,,0.00,Wunderground v.1.15,2013-07-05 16:12:00,
2013-07-05 11:18:00,80.5,70.2,30.03,South,175,4.0,8.0,71,0.00,,,0.00,Wunderground v.1.15,2013-07-05 16:18:00,
2013-07-05 11:25:00,80.8,70.5,30.03,SW,234,4.0,5.0,71,0.00,,,0.00,Wunderground v.1.15,2013-07-05 16:25:00,
2013-07-05 11:31:00,81.1,70.4,30.03,South,182,3.0,6.0,70,0.00,,,0.00,Wunderground v.1.15,2013-07-05 16:31:00,
2013-07-05 11:36:00,80.8,69.7,30.03,SSW,206,4.0,6.0,69,0.00,,,0.00,Wunderground v.1.15,2013-07-05 16:36:00,
2013-07-05 11:41:00,80.9,70.6,30.03,South,175,4.0,9.0,71,0.00,,,0.00,Wunderground v.1.15,2013-07-05 16:41:00,
2013-07-05 11:46:00,81.1,68.7,30.03,South,178,5.0,9.0,66,0.00,,,0.00,Wunderground v.1.15,2013-07-05 16:46:00,
2013-07-05 11:52:00,81.6,68.7,30.03,SSW,210,4.0,4.0,65,0.00,,,0.00,Wunderground v.1.15,2013-07-05 16:52:00,
2013-07-05 11:58:00,81.7,69.2,30.03,SSW,208,4.0,7.0,66,0.00,,,0.00,Wunderground v.1.15,2013-07-05 16:58:00,
2013-07-05 12:05:00,81.4,69.4,30.02,South,182,3.0,5.0,67,0.00,,,0.00,Wunderground v.1.15,2013-07-05 17:05:00,
2013-07-05 12:11:00,81.5,67.7,30.02,South,184,4.0,5.0,63,0.00,,,0.00,Wunderground v.1.15,2013-07-05 17:11:00,
2013-07-05 12:16:00,82.0,70.8,30.02,SW,214,4.0,7.0,69,0.00,,,0.00,Wunderground v.1.15,2013-07-05 17:16:00,
2013-07-05 12:21:00,82.2,70.6,30.02,SSW,200,5.0,5.0,68,0.00,,,0.00,Wunderground v.1.15,2013-07-05 17:21:00,
2013-07-05 12:26:00,82.2,67.4,30.02,SE,145,5.0,5.0,61,0.00,,,0.00,Wunderground v.1.15,2013-07-05 17:26:00,
2013-07-05 12:32:00,81.9,68.1,30.01,SSE,150,4.0,9.0,63,0.00,,,0.00,Wunderground v.1.15,2013-07-05 17:32:00,
2013-07-05 12:37:00,82.0,69.5,30.01,South,180,5.0,10.0,66,0.00,,,0.00,Wunderground v.1.15,2013-07-05 17:37:00,
2013-07-05 12:42:00,82.2,70.1,30.01,SSE,162,6.0,8.0,67,0.00,,,0.00,Wunderground v.1.15,2013-07-05 17:42:00,
2013-07-05 12:47:00,82.4,68.1,30.01,South,178,6.0,8.0,62,0.00,,,0.00,Wunderground v.1.15,2013-07-05 17:47:00,
2013-07-05 12:52:00,82.4,69.0,30.01,South,182,7.0,7.0,64,0.00,,,0.00,Wunderground v.1.15,2013-07-05 17:52:00,
2013-07-05 12:57:00,82.7,69.3,30.01,South,184,7.0,10.0,64,0.00,,,0.00,Wunderground v.1.15,2013-07-05 17:57:00,
2013-07-05 13:02:00,82.8,69.8,30.01,South,181,7.0,12.0,65,0.00,,,0.00,Wunderground v.1.15,2013-07-05 18:02:00,
2013-07-05 13:08:00,82.7,67.9,30.00,South,174,6.0,12.0,61,0.00,,,0.00,Wunderground v.1.15,2013-07-05 18:08:00,
2013-07-05 13:15:00,82.0,68.6,30.00,South,170,3.0,5.0,64,0.00,,,0.00,Wunderground v.1.15,2013-07-05 18:15:00,
2013-07-05 13:20:00,81.7,66.5,30.00,SE,133,4.0,6.0,60,0.00,,,0.00,Wunderground v.1.15,2013-07-05 18:20:00,
2013-07-05 13:26:00,81.7,68.3,30.00,South,180,3.0,6.0,64,0.00,,,0.00,Wunderground v.1.15,2013-07-05 18:26:00,
2013-07-05 13:31:00,82.4,67.6,30.00,SSE,158,5.0,9.0,61,0.00,,,0.00,Wunderground v.1.15,2013-07-05 18:31:00,
2013-07-05 13:33:00,82.5,68.2,30.00,South,191,6.0,12.0,62,0.00,,,0.00,Wunderground v.1.15,2013-07-05 18:33:00,
2013-07-05 13:40:00,82.7,68.8,30.00,SSW,212,7.0,12.0,63,0.00,,,0.00,Wunderground v.1.15,2013-07-05 18:40:00,
2013-07-05 13:46:00,82.9,67.1,30.00,South,178,6.0,9.0,59,0.00,,,0.00,Wunderground v.1.15,2013-07-05 18:46:00,
2013-07-05 13:51:00,82.2,66.9,30.00,SE,140,5.0,5.0,60,0.00,,,0.00,Wunderground v.1.15,2013-07-05 18:51:00,
2013-07-05 13:56:00,82.2,65.4,30.00,SE,144,4.0,7.0,57,0.00,,,0.00,Wunderground v.1.15,2013-07-05 18:56:00,
2013-07-05 14:01:00,82.1,64.8,30.00,South,175,4.0,8.0,56,0.00,,,0.00,Wunderground v.1.15,2013-07-05 19:01:00,
2013-07-05 14:07:00,82.3,69.4,30.00,SSE,167,5.0,9.0,65,0.00,,,0.00,Wunderground v.1.15,2013-07-05 19:07:00,
2013-07-05 14:13:00,82.4,66.6,30.00,South,169,4.0,7.0,59,0.00,,,0.00,Wunderground v.1.15,2013-07-05 19:13:00,
2013-07-05 14:20:00,82.4,66.6,29.99,South,186,6.0,10.0,59,0.00,,,0.00,Wunderground v.1.15,2013-07-05 19:20:00,
2013-07-05 14:25:00,81.8,66.1,29.99,South,188,8.0,18.0,59,0.00,,,0.00,Wunderground v.1.15,2013-07-05 19:25:00,
2013-07-05 14:31:00,82.3,66.5,29.99,SSE,167,6.0,6.0,59,0.00,,,0.00,Wunderground v.1.15,2013-07-05 19:31:00,
2013-07-05 14:36:00,83.1,69.7,29.99,SSW,209,6.0,9.0,64,0.00,,,0.00,Wunderground v.1.15,2013-07-05 19:36:00,
2013-07-05 14:41:00,83.7,66.8,29.99,SSE,166,8.0,10.0,57,0.00,,,0.00,Wunderground v.1.15,2013-07-05 19:41:00,
2013-07-05 14:46:00,83.6,67.8,29.99,SE,137,7.0,10.0,59,0.00,,,0.00,Wunderground v.1.15,2013-07-05 19:46:00,
2013-07-05 14:52:00,83.3,65.4,29.99,South,174,5.0,8.0,55,0.00,,,0.00,Wunderground v.1.15,2013-07-05 19:52:00,
2013-07-05 14:58:00,82.9,67.1,29.98,South,172,4.0,10.0,59,0.00,,,0.00,Wunderground v.1.15,2013-07-05 19:58:00,
2013-07-05 15:03:00,83.2,66.9,29.99,South,184,6.0,8.0,58,0.00,,,0.00,Wunderground v.1.15,2013-07-05 20:03:00,
2013-07-05 15:10:00,83.2,67.4,29.99,South,173,4.0,9.0,59,0.00,,,0.00,Wunderground v.1.15,2013-07-05 20:10:00,
2013-07-05 15:16:00,83.7,65.8,29.98,South,189,5.0,12.0,55,0.00,,,0.00,Wunderground v.1.15,2013-07-05 20:16:00,
2013-07-05 15:21:00,83.6,67.8,29.98,SSE,153,5.0,8.0,59,0.00,,,0.00,Wunderground v.1.15,2013-07-05 20:21:00,
2013-07-05 15:26:00,83.7,66.3,29.98,SE,138,4.0,8.0,56,0.00,,,0.00,Wunderground v.1.15,2013-07-05 20:26:00,
2013-07-05 15:32:00,83.3,66.5,29.98,South,190,4.0,7.0,57,0.00,,,0.00,Wunderground v.1.15,2013-07-05 20:32:00,
2013-07-05 15:37:00,83.7,65.3,29.98,South,188,6.0,12.0,54,0.00,,,0.00,Wunderground v.1.15,2013-07-05 20:37:00,
2013-07-05 15:43:00,83.6,63.6,29.98,SE,143,7.0,7.0,51,0.00,,,0.00,Wunderground v.1.15,2013-07-05 20:43:00,
2013-07-05 15:50:00,83.4,65.5,29.98,SSE,165,5.0,9.0,55,0.00,,,0.00,Wunderground v.1.15,2013-07-05 20:50:00,
2013-07-05 15:55:00,83.5,66.7,29.97,SSW,208,5.0,8.0,57,0.00,,,0.00,Wunderground v.1.15,2013-07-05 20:55:00,
2013-07-05 16:01:00,83.6,64.7,29.97,SSW,200,5.0,6.0,53,0.00,,,0.00,Wunderground v.1.15,2013-07-05 21:01:00,
2013-07-05 16:06:00,83.6,65.7,29.98,South,185,6.0,11.0,55,0.00,,,0.00,Wunderground v.1.15,2013-07-05 21:06:00,
2013-07-05 16:11:00,83.7,65.3,29.98,South,177,6.0,8.0,54,0.00,,,0.00,Wunderground v.1.15,2013-07-05 21:11:00,
2013-07-05 16:16:00,83.9,64.4,29.97,South,182,7.0,8.0,52,0.00,,,0.00,Wunderground v.1.15,2013-07-05 21:16:00,
2013-07-05 16:22:00,83.3,64.9,29.97,South,181,6.0,7.0,54,0.00,,,0.00,Wunderground v.1.15,2013-07-05 21:22:00,
2013-07-05 16:28:00,83.2,64.8,29.97,SE,135,5.0,7.0,54,0.00,,,0.00,Wunderground v.1.15,2013-07-05 21:28:00,
2013-07-05 16:35:00,82.9,64.5,29.98,South,178,5.0,8.0,54,0.00,,,0.00,Wunderground v.1.15,2013-07-05 21:35:00,
2013-07-05 16:40:00,82.5,64.7,29.97,South,178,5.0,8.0,55,0.00,,,0.00,Wunderground v.1.15,2013-07-05 21:40:00,
2013-07-05 16:46:00,82.8,65.5,29.97,South,182,6.0,11.0,56,0.00,,,0.00,Wunderground v.1.15,2013-07-05 21:46:00,
2013-07-05 16:51:00,83.3,67.0,29.97,South,186,6.0,6.0,58,0.00,,,0.00,Wunderground v.1.15,2013-07-05 21:51:00,
2013-07-05 16:56:00,83.7,67.4,29.97,South,178,5.0,8.0,58,0.00,,,0.00,Wunderground v.1.15,2013-07-05 21:56:00,
2013-07-05 17:02:00,83.5,65.1,29.97,SSE,147,5.0,8.0,54,0.00,,,0.00,Wunderground v.1.15,2013-07-05 22:02:00,
2013-07-05 17:07:00,83.0,64.6,29.97,South,173,5.0,8.0,54,0.00,,,0.00,Wunderground v.1.15,2013-07-05 22:07:00,
2013-07-05 17:12:00,83.0,66.2,29.97,South,180,5.0,7.0,57,0.00,,,0.00,Wunderground v.1.15,2013-07-05 22:12:00,
2013-07-05 17:18:00,82.9,64.5,29.97,South,171,5.0,7.0,54,0.00,,,0.00,Wunderground v.1.15,2013-07-05 22:18:00,
2013-07-05 17:23:00,82.9,64.5,29.97,South,169,5.0,8.0,54,0.00,,,0.00,Wunderground v.1.15,2013-07-05 22:23:00,
2013-07-05 17:30:00,82.7,65.4,29.97,South,177,5.0,8.0,56,0.00,,,0.00,Wunderground v.1.15,2013-07-05 22:30:00,
2013-07-05 17:36:00,82.8,64.5,29.97,SSE,161,5.0,11.0,54,0.00,,,0.00,Wunderground v.1.15,2013-07-05 22:36:00,
2013-07-05 17:41:00,82.7,65.9,29.97,South,170,5.0,5.0,57,0.00,,,0.00,Wunderground v.1.15,2013-07-05 22:41:00,
2013-07-05 17:46:00,82.8,65.0,29.97,South,175,6.0,11.0,55,0.00,,,0.00,Wunderground v.1.15,2013-07-05 22:46:00,
2013-07-05 17:52:00,82.9,64.5,29.97,South,179,7.0,7.0,54,0.00,,,0.00,Wunderground v.1.15,2013-07-05 22:52:00,
2013-07-05 17:57:00,82.9,64.5,29.97,South,179,6.0,8.0,54,0.00,,,0.00,Wunderground v.1.15,2013-07-05 22:57:00,
2013-07-05 18:03:00,82.9,65.6,29.97,South,178,5.0,9.0,56,0.00,,,0.00,Wunderground v.1.15,2013-07-05 23:03:00,
2013-07-05 18:08:00,82.8,65.0,29.97,South,183,5.0,9.0,55,0.00,,,0.00,Wunderground v.1.15,2013-07-05 23:08:00,
2013-07-05 18:15:00,82.7,65.4,29.97,SSE,165,5.0,10.0,56,0.00,,,0.00,Wunderground v.1.15,2013-07-05 23:15:00,
2013-07-05 18:20:00,82.4,65.1,29.97,South,171,5.0,10.0,56,0.00,,,0.00,Wunderground v.1.15,2013-07-05 23:20:00,
2013-07-05 18:25:00,82.3,65.5,29.97,South,169,4.0,6.0,57,0.00,,,0.00,Wunderground v.1.15,2013-07-05 23:25:00,
2013-07-05 18:31:00,82.0,65.3,29.97,SE,146,4.0,7.0,57,0.00,,,0.00,Wunderground v.1.15,2013-07-05 23:31:00,
2013-07-05 18:36:00,81.7,65.0,29.97,South,191,4.0,7.0,57,0.00,,,0.00,Wunderground v.1.15,2013-07-05 23:36:00,
2013-07-05 18:42:00,81.4,66.2,29.96,South,172,5.0,5.0,60,0.00,,,0.00,Wunderground v.1.15,2013-07-05 23:42:00,
2013-07-05 18:47:00,81.2,66.0,29.96,South,172,4.0,5.0,60,0.00,,,0.00,Wunderground v.1.15,2013-07-05 23:47:00,
2013-07-05 18:52:00,81.4,65.7,29.96,South,173,3.0,4.0,59,0.00,,,0.00,Wunderground v.1.15,2013-07-05 23:52:00,
2013-07-05 18:58:00,81.3,65.6,29.96,South,173,4.0,8.0,59,0.00,,,0.00,Wunderground v.1.15,2013-07-05 23:58:00,
2013-07-05 19:05:00,81.3,66.1,29.96,SSE,167,4.0,5.0,60,0.00,,,0.00,Wunderground v.1.15,2013-07-06 00:05:00,
2013-07-05 19:10:00,81.2,65.5,29.96,South,180,4.0,5.0,59,0.00,,,0.00,Wunderground v.1.15,2013-07-06 00:10:00,
2013-07-05 19:11:00,81.1,65.9,29.96,South,179,4.0,5.0,60,0.00,,,0.00,Wunderground v.1.15,2013-07-06 00:11:00,
2013-07-05 19:16:00,80.9,65.2,29.96,South,173,3.0,6.0,59,0.00,,,0.00,Wunderground v.1.15,2013-07-06 00:16:00,
2013-07-05 19:21:00,80.7,66.0,29.96,South,173,3.0,3.0,61,0.00,,,0.00,Wunderground v.1.15,2013-07-06 00:21:00,
2013-07-05 19:22:00,80.6,65.9,29.96,South,175,3.0,4.0,61,0.00,,,0.00,Wunderground v.1.15,2013-07-06 00:22:00,
2013-07-05 19:28:00,80.5,65.8,29.96,South,174,3.0,4.0,61,0.00,,,0.00,Wunderground v.1.15,2013-07-06 00:28:00,
2013-07-05 19:35:00,80.4,66.2,29.96,South,178,3.0,3.0,62,0.00,,,0.00,Wunderground v.1.15,2013-07-06 00:35:00,
2013-07-05 19:40:00,80.3,66.1,29.96,South,174,3.0,4.0,62,0.00,,,0.00,Wunderground v.1.15,2013-07-06 00:40:00,
2013-07-05 19:46:00,80.3,65.6,29.96,South,174,2.0,3.0,61,0.00,,,0.00,Wunderground v.1.15,2013-07-06 00:46:00,
2013-07-05 19:51:00,80.2,65.5,29.96,South,174,2.0,2.0,61,0.00,,,0.00,Wunderground v.1.15,2013-07-06 00:51:00,
2013-07-05 19:56:00,79.8,65.6,29.96,South,174,2.0,2.0,62,0.00,,,0.00,Wunderground v.1.15,2013-07-06 00:56:00,
2013-07-05 19:57:00,79.7,65.5,29.96,South,174,2.0,2.0,62,0.00,,,0.00,Wunderground v.1.15,2013-07-06 00:57:00,
2013-07-05 20:03:00,79.2,65.5,29.96,South,174,2.0,2.0,63,0.00,,,0.00,Wunderground v.1.15,2013-07-06 01:03:00,
2013-07-05 20:06:00,79.0,65.3,29.96,South,174,2.0,2.0,63,0.00,,,0.00,Wunderground v.1.15,2013-07-06 01:06:00,
2013-07-05 20:12:00,78.6,64.9,29.96,South,174,2.0,2.0,63,0.00,,,0.00,Wunderground v.1.15,2013-07-06 01:12:00,
2013-07-05 20:18:00,78.0,64.8,29.96,South,174,2.0,3.0,64,0.00,,,0.00,Wunderground v.1.15,2013-07-06 01:18:00,
2013-07-05 20:25:00,77.4,64.7,29.96,South,174,1.0,2.0,65,0.00,,,0.00,Wunderground v.1.15,2013-07-06 01:25:00,
2013-07-05 20:31:00,76.7,64.5,29.96,South,174,1.0,1.0,66,0.00,,,0.00,Wunderground v.1.15,2013-07-06 01:31:00,
2013-07-05 20:36:00,76.2,64.4,29.96,South,174,1.0,3.0,67,0.00,,,0.00,Wunderground v.1.15,2013-07-06 01:36:00,
2013-07-05 20:41:00,75.8,64.5,29.96,South,174,1.0,1.0,68,0.00,,,0.00,Wunderground v.1.15,2013-07-06 01:41:00,
2013-07-05 20:47:00,75.3,64.4,29.96,South,174,1.0,4.0,69,0.00,,,0.00,Wunderground v.1.15,2013-07-06 01:47:00,
2013-07-05 20:53:00,74.8,64.4,29.96,South,174,2.0,2.0,70,0.00,,,0.00,Wunderground v.1.15,2013-07-06 01:53:00,
2013-07-05 20:58:00,74.4,64.4,29.96,South,174,2.0,2.0,71,0.00,,,0.00,Wunderground v.1.15,2013-07-06 01:58:00,
2013-07-05 21:05:00,74.0,64.0,29.96,South,174,2.0,2.0,71,0.00,,,0.00,Wunderground v.1.15,2013-07-06 02:05:00,
2013-07-05 21:11:00,73.6,64.0,29.97,South,174,2.0,2.0,72,0.00,,,0.00,Wunderground v.1.15,2013-07-06 02:11:00,
2013-07-05 21:16:00,73.4,63.8,29.97,South,174,2.0,2.0,72,0.00,,,0.00,Wunderground v.1.15,2013-07-06 02:16:00,
2013-07-05 21:21:00,73.1,63.9,29.97,South,174,1.0,1.0,73,0.00,,,0.00,Wunderground v.1.15,2013-07-06 02:21:00,
2013-07-05 21:26:00,73.0,63.8,29.98,South,174,1.0,2.0,73,0.00,,,0.00,Wunderground v.1.15,2013-07-06 02:26:00,
2013-07-05 21:32:00,72.6,63.8,29.98,South,174,2.0,2.0,74,0.00,,,0.00,Wunderground v.1.15,2013-07-06 02:32:00,
2013-07-05 21:38:00,72.3,63.5,29.98,South,174,1.0,2.0,74,0.00,,,0.00,Wunderground v.1.15,2013-07-06 02:38:00,
2013-07-05 21:43:00,72.1,63.4,29.98,South,174,1.0,1.0,74,0.00,,,0.00,Wunderground v.1.15,2013-07-06 02:43:00,
2013-07-05 21:50:00,71.8,63.4,29.99,South,174,0.0,1.0,75,0.00,,,0.00,Wunderground v.1.15,2013-07-06 02:50:00,
2013-07-05 21:56:00,71.7,63.4,29.99,South,174,1.0,3.0,75,0.00,,,0.00,Wunderground v.1.15,2013-07-06 02:56:00,
2013-07-05 22:01:00,71.5,63.2,29.99,South,174,0.0,1.0,75,0.00,,,0.00,Wunderground v.1.15,2013-07-06 03:01:00,
2013-07-05 22:06:00,71.4,63.1,29.99,South,174,1.0,2.0,75,0.00,,,0.00,Wunderground v.1.15,2013-07-06 03:06:00,
2013-07-05 22:12:00,71.2,63.2,29.99,South,174,2.0,3.0,76,0.00,,,0.00,Wunderground v.1.15,2013-07-06 03:12:00,
2013-07-05 22:17:00,71.0,63.1,29.99,South,174,2.0,3.0,76,0.00,,,0.00,Wunderground v.1.15,2013-07-06 03:17:00,
2013-07-05 22:22:00,70.9,63.3,30.00,South,174,3.0,5.0,77,0.00,,,0.00,Wunderground v.1.15,2013-07-06 03:22:00,
2013-07-05 22:28:00,70.6,63.0,30.00,South,174,3.0,5.0,77,0.00,,,0.00,Wunderground v.1.15,2013-07-06 03:28:00,
2013-07-05 22:33:00,70.4,63.2,29.99,South,174,3.0,3.0,78,0.00,,,0.00,Wunderground v.1.15,2013-07-06 03:33:00,
2013-07-05 22:38:00,70.2,63.0,29.99,South,174,2.0,3.0,78,0.00,,,0.00,Wunderground v.1.15,2013-07-06 03:38:00,
2013-07-05 22:45:00,70.1,63.3,30.00,South,174,3.0,4.0,79,0.00,,,0.00,Wunderground v.1.15,2013-07-06 03:45:00,
2013-07-05 22:51:00,69.9,63.1,29.99,South,174,3.0,3.0,79,0.00,,,0.00,Wunderground v.1.15,2013-07-06 03:51:00,
2013-07-05 22:56:00,69.7,62.9,29.99,South,174,3.0,5.0,79,0.00,,,0.00,Wunderground v.1.15,2013-07-06 03:56:00,
2013-07-05 23:01:00,69.6,63.2,29.99,South,174,3.0,3.0,80,0.00,,,0.00,Wunderground v.1.15,2013-07-06 04:01:00,
2013-07-05 23:02:00,69.5,63.1,29.99,South,174,4.0,4.0,80,0.00,,,0.00,Wunderground v.1.15,2013-07-06 04:02:00,
2013-07-05 23:03:00,69.5,63.1,29.99,South,174,3.0,5.0,80,0.00,,,0.00,Wunderground v.1.15,2013-07-06 04:03:00,
2013-07-05 23:05:00,69.5,63.1,29.99,South,174,3.0,5.0,80,0.00,,,0.00,Wunderground v.1.15,2013-07-06 04:05:00,
2013-07-05 23:06:00,69.5,63.1,29.99,South,174,3.0,5.0,80,0.00,,,0.00,Wunderground v.1.15,2013-07-06 04:06:00,
2013-07-05 23:12:00,69.3,63.2,29.99,South,174,3.0,7.0,81,0.00,,,0.00,Wunderground v.1.15,2013-07-06 04:12:00,
2013-07-05 23:17:00,69.1,63.0,29.99,South,174,3.0,7.0,81,0.00,,,0.00,Wunderground v.1.15,2013-07-06 04:17:00,
2013-07-05 23:22:00,69.0,63.3,29.99,South,174,3.0,4.0,82,0.00,,,0.00,Wunderground v.1.15,2013-07-06 04:22:00,
2013-07-05 23:28:00,68.9,63.2,29.99,South,170,3.0,5.0,82,0.00,,,0.00,Wunderground v.1.15,2013-07-06 04:28:00,
2013-07-05 23:33:00,68.8,63.1,29.99,South,171,4.0,6.0,82,0.00,,,0.00,Wunderground v.1.15,2013-07-06 04:33:00,
2013-07-05 23:40:00,68.8,63.4,29.99,South,178,5.0,6.0,83,0.00,,,0.00,Wunderground v.1.15,2013-07-06 04:40:00,
2013-07-05 23:46:00,68.9,63.5,29.99,South,184,5.0,7.0,83,0.00,,,0.00,Wunderground v.1.15,2013-07-06 04:46:00,
2013-07-05 23:51:00,69.0,63.6,29.99,South,185,5.0,5.0,83,0.00,,,0.00,Wunderground v.1.15,2013-07-06 04:51:00,
2013-07-05 23:57:00,69.0,63.6,29.99,South,186,4.0,5.0,83,0.00,,,0.00,Wunderground v.1.15,2013-07-06 04:57:00,